createdAt,value
2022-08-14T00:00:40.941Z,20.00
2022-08-14T00:03:29.802Z,20.00
2022-08-14T00:06:25.853Z,20.00
2022-08-14T00:09:07.307Z,19.50
2022-08-14T00:11:45.481Z,19.50
2022-08-14T00:14:26.152Z,19.50
2022-08-14T00:17:06.112Z,20.00
2022-08-14T00:19:44.282Z,19.50
2022-08-14T00:22:56.166Z,19.50
2022-08-14T00:25:22.827Z,19.50
2022-08-14T00:27:58.295Z,20.00
2022-08-14T00:30:36.702Z,19.50
2022-08-14T00:33:21.140Z,19.50
2022-08-14T00:36:35.888Z,20.00
2022-08-14T00:39:24.140Z,19.50
2022-08-14T00:42:04.967Z,19.50
2022-08-14T00:44:43.786Z,19.50
2022-08-14T00:47:26.792Z,19.50
2022-08-14T00:50:10.192Z,19.50
2022-08-14T00:52:57.040Z,19.00
2022-08-14T00:55:38.920Z,19.50
2022-08-14T00:58:33.695Z,19.50
2022-08-14T01:01:16.714Z,19.00
2022-08-14T01:03:57.536Z,19.00
2022-08-14T01:06:35.307Z,19.50
2022-08-14T01:09:13.890Z,19.50
2022-08-14T01:12:02.730Z,19.50
2022-08-14T01:14:41.562Z,19.50
2022-08-14T01:17:19.912Z,19.50
2022-08-14T01:20:27.525Z,19.50
2022-08-14T01:23:16.396Z,19.50
2022-08-14T01:25:58.496Z,19.50
2022-08-14T01:28:56.543Z,19.50
2022-08-14T01:31:52.581Z,19.50
2022-08-14T01:35:19.978Z,19.00
2022-08-14T01:37:31.443Z,19.00
2022-08-14T01:40:11.087Z,19.00
2022-08-14T01:42:49.836Z,19.00
2022-08-14T01:45:28.855Z,19.00
2022-08-14T01:48:13.332Z,19.00
2022-08-14T01:50:52.307Z,19.00
2022-08-14T01:53:35.832Z,19.00
2022-08-14T01:56:20.324Z,19.00
2022-08-14T01:58:58.444Z,19.00
2022-08-14T02:01:38.071Z,19.00
2022-08-14T02:04:55.580Z,18.50
2022-08-14T02:07:34.703Z,19.00
2022-08-14T02:10:26.008Z,19.00
2022-08-14T02:13:08.343Z,19.00
2022-08-14T02:15:48.812Z,19.00
2022-08-14T02:18:28.475Z,19.00
2022-08-14T02:21:12.722Z,18.50
2022-08-14T02:23:54.662Z,19.00
2022-08-14T02:28:19.228Z,19.00
2022-08-14T02:29:59.341Z,18.50
2022-08-14T02:32:38.292Z,18.50
2022-08-14T02:35:21.937Z,19.00
2022-08-14T02:38:04.707Z,19.00
2022-08-14T02:40:43.050Z,19.00
2022-08-14T02:43:23.964Z,18.50
2022-08-14T02:46:03.383Z,18.50
2022-08-14T02:49:03.350Z,18.50
2022-08-14T02:51:42.049Z,18.50
2022-08-14T02:54:20.548Z,18.50
2022-08-14T02:57:16.052Z,18.50
2022-08-14T02:59:59.555Z,18.50
2022-08-14T03:02:56.468Z,18.50
2022-08-14T03:05:41.393Z,18.50
2022-08-14T03:08:21.180Z,18.50
2022-08-14T03:11:07.691Z,18.50
2022-08-14T03:13:51.809Z,18.50
2022-08-14T03:16:35.997Z,18.50
2022-08-14T03:19:19.651Z,18.50
2022-08-14T03:21:57.977Z,18.50
2022-08-14T03:24:37.699Z,18.50
2022-08-14T03:27:17.059Z,18.50
2022-08-14T03:29:55.230Z,18.50
2022-08-14T03:32:33.616Z,18.50
2022-08-14T03:35:12.207Z,18.50
2022-08-14T03:39:12.297Z,18.50
2022-08-14T03:40:51.451Z,18.50
2022-08-14T03:43:33.846Z,18.00
2022-08-14T03:46:38.833Z,18.50
2022-08-14T03:49:12.784Z,18.50
2022-08-14T03:51:52.159Z,18.50
2022-08-14T03:54:35.484Z,18.50
2022-08-14T03:57:13.964Z,18.50
2022-08-14T03:59:52.376Z,18.50
2022-08-14T04:02:33.408Z,18.00
2022-08-14T04:05:16.731Z,18.00
2022-08-14T04:08:08.613Z,18.50
2022-08-14T04:10:53.487Z,18.50
2022-08-14T04:13:35.536Z,18.50
2022-08-14T04:16:20.680Z,18.50
2022-08-14T04:19:00.459Z,18.50
2022-08-14T04:22:03.752Z,18.00
2022-08-14T04:24:39.260Z,18.00
2022-08-14T04:27:17.567Z,18.00
2022-08-14T04:29:57.460Z,18.00
2022-08-14T04:33:00.412Z,18.50
2022-08-14T04:35:55.890Z,18.50
2022-08-14T04:38:50.800Z,18.00
2022-08-14T04:41:47.683Z,18.00
2022-08-14T04:44:36.587Z,18.50
2022-08-14T04:47:38.303Z,18.50
2022-08-14T04:50:31.363Z,18.50
2022-08-14T04:53:26.492Z,18.50
2022-08-14T04:56:30.205Z,18.50
2022-08-14T04:59:11.304Z,18.50
2022-08-14T05:01:53.864Z,18.50
2022-08-14T05:04:33.561Z,18.00
2022-08-14T05:07:17.950Z,18.00
2022-08-14T05:10:16.441Z,18.00
2022-08-14T05:13:13.340Z,18.00
2022-08-14T05:15:55.148Z,18.50
2022-08-14T05:19:18.755Z,18.50
2022-08-14T05:21:57.419Z,18.50
2022-08-14T05:24:34.008Z,18.50
2022-08-14T05:27:13.040Z,18.50
2022-08-14T05:29:57.025Z,18.50
2022-08-14T05:32:35.737Z,19.00
2022-08-14T05:35:15.198Z,18.50
2022-08-14T05:37:54.135Z,18.50
2022-08-14T05:40:33.038Z,18.50
2022-08-14T05:43:11.201Z,18.50
2022-08-14T05:45:50.967Z,18.50
2022-08-14T05:48:33.084Z,18.50
2022-08-14T05:51:13.045Z,18.50
2022-08-14T05:54:01.515Z,18.50
2022-08-14T05:56:49.783Z,18.50
2022-08-14T05:59:36.770Z,19.00
2022-08-14T06:02:17.571Z,18.50
2022-08-14T06:05:01.857Z,18.50
2022-08-14T06:07:41.268Z,18.50
2022-08-14T06:10:21.536Z,18.50
2022-08-14T06:13:04.054Z,18.50
2022-08-14T06:15:43.446Z,18.50
2022-08-14T06:18:21.738Z,18.50
2022-08-14T06:21:06.235Z,18.50
2022-08-14T06:23:53.182Z,18.50
2022-08-14T06:26:31.404Z,18.50
2022-08-14T06:29:10.909Z,19.00
2022-08-14T06:31:54.478Z,18.50
2022-08-14T06:35:03.240Z,18.50
2022-08-14T06:37:47.809Z,18.50
2022-08-14T06:40:35.719Z,18.50
2022-08-14T06:43:16.101Z,19.00
2022-08-14T06:45:55.447Z,19.00
2022-08-14T06:48:35.509Z,19.00
2022-08-14T06:51:14.288Z,19.00
2022-08-14T06:53:52.406Z,19.00
2022-08-14T06:56:30.773Z,19.00
2022-08-14T06:59:08.917Z,19.00
2022-08-14T07:02:17.703Z,19.00
2022-08-14T07:05:20.982Z,19.50
2022-08-14T07:08:01.380Z,19.50
2022-08-14T07:10:40.101Z,19.50
2022-08-14T07:13:22.336Z,19.50
2022-08-14T07:16:05.521Z,19.50
2022-08-14T07:18:43.910Z,19.50
2022-08-14T07:21:23.296Z,19.50
2022-08-14T07:24:01.365Z,19.50
2022-08-14T07:26:41.205Z,19.50
2022-08-14T07:29:24.054Z,20.00
2022-08-14T07:32:04.755Z,20.00
2022-08-14T07:34:42.943Z,20.00
2022-08-14T07:37:21.324Z,20.00
2022-08-14T07:39:59.520Z,20.00
2022-08-14T07:42:38.855Z,20.00
2022-08-14T07:45:19.557Z,20.50
2022-08-14T07:47:58.137Z,20.50
2022-08-14T07:50:39.531Z,20.50
2022-08-14T07:53:19.500Z,20.50
2022-08-14T07:56:08.770Z,20.50
2022-08-14T07:58:58.390Z,21.00
2022-08-14T08:01:36.816Z,21.00
2022-08-14T08:04:24.016Z,21.00
2022-08-14T08:07:03.617Z,21.00
2022-08-14T08:09:53.056Z,21.00
2022-08-14T08:12:33.720Z,20.50
2022-08-14T08:15:11.839Z,21.00
2022-08-14T08:17:53.766Z,21.00
2022-08-14T08:20:53.576Z,21.00
2022-08-14T08:23:43.715Z,21.50
2022-08-14T08:26:31.360Z,21.50
2022-08-14T08:29:09.781Z,22.00
2022-08-14T08:31:52.552Z,21.50
2022-08-14T08:34:30.703Z,21.50
2022-08-14T08:37:08.838Z,21.50
2022-08-14T08:40:02.789Z,21.50
2022-08-14T08:42:44.559Z,21.50
2022-08-14T08:45:23.635Z,22.00
2022-08-14T08:48:03.713Z,21.50
2022-08-14T08:51:02.282Z,21.50
2022-08-14T08:53:41.794Z,22.00
2022-08-14T08:56:30.796Z,22.00
2022-08-14T08:59:27.265Z,22.00
2022-08-14T09:02:10.823Z,22.50
2022-08-14T09:04:53.552Z,22.00
2022-08-14T09:07:32.132Z,22.00
2022-08-14T09:10:11.249Z,22.00
2022-08-14T09:12:56.390Z,22.50
2022-08-14T09:15:42.379Z,22.50
2022-08-14T09:18:23.368Z,22.50
2022-08-14T09:21:01.496Z,22.50
2022-08-14T09:24:28.119Z,22.50
2022-08-14T09:26:41.875Z,22.50
2022-08-14T09:29:23.268Z,23.00
2022-08-14T09:32:58.365Z,23.00
2022-08-14T09:35:33.630Z,23.00
2022-08-14T09:38:44.201Z,23.00
2022-08-14T09:42:20.152Z,23.00
2022-08-14T09:45:16.580Z,22.50
2022-08-14T09:47:57.978Z,23.00
2022-08-14T09:50:52.303Z,23.50
2022-08-14T09:54:18.780Z,23.00
2022-08-14T09:56:51.647Z,23.00
2022-08-14T09:59:46.599Z,23.50
2022-08-14T10:02:32.124Z,23.50
2022-08-14T10:05:13.145Z,23.00
2022-08-14T10:07:53.402Z,23.50
2022-08-14T10:10:41.668Z,23.50
2022-08-14T10:13:26.715Z,23.50
2022-08-14T10:16:05.047Z,23.50
2022-08-14T10:19:13.463Z,23.00
2022-08-14T10:23:12.882Z,24.00
2022-08-14T10:25:16.162Z,24.00
2022-08-14T10:27:59.372Z,24.50
2022-08-14T10:30:38.518Z,24.50
2022-08-14T10:33:32.712Z,24.50
2022-08-14T10:36:19.761Z,24.50
2022-08-14T10:39:22.910Z,24.00
2022-08-14T10:42:16.286Z,24.50
2022-08-14T10:44:56.609Z,25.00
2022-08-14T10:48:08.704Z,24.50
2022-08-14T10:50:46.585Z,24.50
2022-08-14T10:53:39.275Z,24.50
2022-08-14T10:56:21.562Z,24.00
2022-08-14T10:59:13.464Z,25.00
2022-08-14T11:01:51.616Z,25.50
2022-08-14T11:04:31.256Z,25.50
2022-08-14T11:07:21.074Z,24.50
2022-08-14T11:10:05.852Z,25.00
2022-08-14T11:12:56.123Z,26.00
2022-08-14T11:15:36.327Z,25.50
2022-08-14T11:18:20.557Z,25.50
2022-08-14T11:21:10.473Z,25.50
2022-08-14T11:23:49.823Z,25.50
2022-08-14T11:26:34.938Z,25.00
2022-08-14T11:29:15.241Z,25.00
2022-08-14T11:32:00.194Z,25.50
2022-08-14T11:34:39.460Z,25.00
2022-08-14T11:37:21.986Z,25.50
2022-08-14T11:40:20.007Z,26.00
2022-08-14T11:43:09.991Z,26.00
2022-08-14T11:45:50.651Z,26.00
2022-08-14T11:49:02.434Z,25.50
2022-08-14T11:51:30.609Z,25.50
2022-08-14T11:54:08.937Z,26.00
2022-08-14T11:56:51.416Z,26.00
2022-08-14T11:59:33.510Z,26.00
2022-08-14T12:03:01.213Z,25.50
2022-08-14T12:05:16.490Z,25.50
2022-08-14T12:07:56.075Z,25.50
2022-08-14T12:10:40.942Z,26.00
2022-08-14T12:13:23.513Z,26.00
2022-08-14T12:16:11.280Z,25.50
2022-08-14T12:18:59.268Z,25.50
2022-08-14T12:21:37.651Z,25.50
2022-08-14T12:24:31.825Z,26.50
2022-08-14T12:27:16.862Z,26.50
2022-08-14T12:29:57.270Z,26.00
2022-08-14T12:32:49.134Z,26.00
2022-08-14T12:35:42.831Z,26.00
2022-08-14T12:38:43.585Z,26.00
2022-08-14T12:41:27.896Z,26.00
2022-08-14T12:44:08.487Z,26.00
2022-08-14T12:46:47.440Z,25.50
2022-08-14T12:49:28.447Z,26.00
2022-08-14T12:52:16.801Z,26.00
2022-08-14T12:55:21.522Z,26.00
2022-08-14T12:58:02.624Z,26.00
2022-08-14T13:01:16.717Z,26.00
2022-08-14T13:04:07.930Z,26.50
2022-08-14T13:06:50.482Z,26.50
2022-08-14T13:09:36.444Z,26.50
2022-08-14T13:12:33.186Z,26.50
2022-08-14T13:15:18.056Z,26.00
2022-08-14T13:18:00.504Z,26.50
2022-08-14T13:20:51.298Z,26.00
2022-08-14T13:23:37.633Z,27.00
2022-08-14T13:26:17.070Z,27.00
2022-08-14T13:29:01.445Z,27.00
2022-08-14T13:31:49.718Z,27.00
2022-08-14T13:34:33.218Z,27.00
2022-08-14T13:37:11.818Z,26.50
2022-08-14T13:39:56.667Z,27.00
2022-08-14T13:42:36.725Z,26.50
2022-08-14T13:45:15.701Z,27.00
2022-08-14T13:47:55.588Z,27.00
2022-08-14T13:50:35.310Z,26.50
2022-08-14T13:53:16.391Z,26.50
2022-08-14T13:55:56.532Z,26.50
2022-08-14T13:58:37.918Z,26.50
2022-08-14T14:01:18.912Z,26.50
2022-08-14T14:03:57.591Z,26.00
2022-08-14T14:06:36.787Z,26.50
2022-08-14T14:09:25.734Z,26.50
2022-08-14T14:12:04.518Z,26.00
2022-08-14T14:14:50.924Z,26.00
2022-08-14T14:17:31.702Z,25.50
2022-08-14T14:20:14.940Z,25.50
2022-08-14T14:23:17.603Z,25.50
2022-08-14T14:25:57.728Z,25.50
2022-08-14T14:28:36.002Z,25.50
2022-08-14T14:31:16.476Z,25.50
2022-08-14T14:34:07.549Z,25.50
2022-08-14T14:37:04.876Z,25.00
2022-08-14T14:40:50.350Z,25.00
2022-08-14T14:42:55.642Z,24.50
2022-08-14T14:45:36.076Z,24.50
2022-08-14T14:48:15.530Z,25.00
2022-08-14T14:50:53.939Z,25.00
2022-08-14T14:53:39.150Z,24.50
2022-08-14T14:56:52.123Z,24.00
2022-08-14T14:59:15.877Z,24.50
2022-08-14T15:02:08.156Z,24.50
2022-08-14T15:04:48.004Z,24.50
2022-08-14T15:07:29.694Z,25.00
2022-08-14T15:10:27.880Z,25.00
2022-08-14T15:13:10.424Z,25.50
2022-08-14T15:15:48.975Z,25.50
2022-08-14T15:18:39.258Z,25.50
2022-08-14T15:21:20.256Z,25.50
2022-08-14T15:23:59.369Z,25.50
2022-08-14T15:26:37.676Z,26.00
2022-08-14T15:29:17.320Z,26.00
2022-08-14T15:31:55.500Z,26.00
2022-08-14T15:34:45.292Z,26.00
2022-08-14T15:37:32.712Z,26.00
2022-08-14T15:40:22.064Z,26.00
2022-08-14T15:43:00.985Z,26.00
2022-08-14T15:45:42.449Z,26.50
2022-08-14T15:48:22.273Z,26.50
2022-08-14T15:51:03.223Z,26.50
2022-08-14T15:53:42.799Z,26.50
2022-08-14T15:56:42.296Z,26.50
2022-08-14T15:59:21.860Z,26.50
2022-08-14T16:02:01.523Z,26.50
2022-08-14T16:04:41.321Z,26.50
2022-08-14T16:07:22.307Z,26.50
2022-08-14T16:10:28.254Z,26.50
2022-08-14T16:13:04.901Z,26.50
2022-08-14T16:15:45.459Z,26.00
2022-08-14T16:18:36.716Z,26.00
2022-08-14T16:21:21.571Z,26.00
2022-08-14T16:24:01.620Z,26.00
2022-08-14T16:26:41.044Z,26.00
2022-08-14T16:29:21.745Z,26.00
2022-08-14T16:32:31.941Z,26.00
2022-08-14T16:35:01.380Z,26.00
2022-08-14T16:37:43.437Z,26.50
2022-08-14T16:43:13.007Z,26.50
2022-08-14T16:45:53.985Z,26.50
2022-08-14T16:48:57.368Z,26.50
2022-08-14T16:51:34.775Z,26.50
2022-08-14T16:54:33.802Z,26.00
2022-08-14T16:57:28.010Z,26.00
2022-08-14T17:00:43.642Z,26.00
2022-08-14T17:03:24.648Z,26.50
2022-08-14T17:06:03.152Z,26.00
2022-08-14T17:09:01.892Z,26.00
2022-08-14T17:12:33.442Z,26.00
2022-08-14T17:15:15.431Z,26.00
2022-08-14T17:17:57.495Z,26.00
2022-08-14T17:20:54.173Z,26.00
2022-08-14T17:23:35.875Z,26.00
2022-08-14T17:26:47.373Z,26.00
2022-08-14T17:29:33.261Z,26.00
2022-08-14T17:32:21.967Z,26.00
2022-08-14T17:35:10.064Z,25.50
2022-08-14T17:37:56.044Z,26.00
2022-08-14T17:40:34.734Z,25.50
2022-08-14T17:43:13.411Z,25.50
2022-08-14T17:45:51.656Z,25.50
2022-08-14T17:49:15.156Z,25.50
2022-08-14T17:51:33.021Z,25.50
2022-08-14T17:54:12.794Z,25.50
2022-08-14T17:57:23.493Z,25.00
2022-08-14T18:00:02.029Z,25.00
2022-08-14T18:02:51.303Z,25.50
2022-08-14T18:06:08.979Z,25.00
2022-08-14T18:08:32.845Z,25.00
2022-08-14T18:11:17.927Z,25.00
2022-08-14T18:13:59.841Z,25.00
2022-08-14T18:16:44.742Z,25.00
2022-08-14T18:19:29.370Z,24.50
2022-08-14T18:22:31.193Z,24.50
2022-08-14T18:25:18.333Z,24.50
2022-08-14T18:28:16.180Z,24.50
2022-08-14T18:31:21.423Z,24.50
2022-08-14T18:34:31.714Z,24.50
2022-08-14T18:37:21.315Z,24.50
2022-08-14T18:40:20.212Z,24.50
2022-08-14T18:43:03.501Z,25.00
2022-08-14T18:46:01.288Z,25.00
2022-08-14T18:48:51.082Z,25.00
2022-08-14T18:51:45.208Z,24.50
2022-08-14T18:54:34.322Z,24.50
2022-08-14T18:57:13.303Z,24.50
2022-08-14T18:59:59.051Z,24.50
2022-08-14T19:02:43.468Z,24.50
2022-08-14T19:05:47.582Z,24.50
2022-08-14T19:08:27.556Z,24.50
2022-08-14T19:11:40.595Z,24.50
2022-08-14T19:14:47.540Z,24.50
2022-08-14T19:18:14.137Z,24.50
2022-08-14T19:20:53.000Z,24.50
2022-08-14T19:23:43.910Z,24.50
2022-08-14T19:26:52.198Z,24.50
2022-08-14T19:29:37.552Z,24.50
2022-08-14T19:32:41.069Z,24.50
2022-08-14T19:35:49.048Z,24.00
2022-08-14T19:38:53.568Z,24.00
2022-08-14T19:41:37.978Z,24.00
2022-08-14T19:44:20.175Z,24.00
2022-08-14T19:47:11.498Z,24.00
2022-08-14T19:50:07.739Z,24.00
2022-08-14T19:53:10.717Z,24.00
2022-08-14T19:56:02.369Z,24.00
2022-08-14T19:58:55.191Z,24.00
2022-08-14T20:01:40.268Z,24.00
2022-08-14T20:04:47.721Z,24.00
2022-08-14T20:08:00.482Z,24.00
2022-08-14T20:11:04.940Z,24.50
2022-08-14T20:13:38.796Z,24.00
2022-08-14T20:16:20.919Z,24.00
2022-08-14T20:19:28.892Z,24.00
2022-08-14T20:22:35.403Z,24.00
2022-08-14T20:25:16.666Z,24.00
2022-08-14T20:27:58.584Z,23.50
2022-08-14T20:30:38.102Z,24.00
2022-08-14T20:33:18.404Z,24.00
2022-08-14T20:35:56.638Z,23.50
2022-08-14T20:38:39.396Z,24.00
2022-08-14T20:41:28.742Z,24.00
2022-08-14T20:44:28.753Z,23.50
2022-08-14T20:47:08.109Z,23.50
2022-08-14T20:49:46.345Z,24.00
2022-08-14T20:52:30.255Z,24.00
2022-08-14T20:55:41.721Z,24.00
2022-08-14T20:58:44.093Z,23.50
2022-08-14T21:01:23.322Z,23.50
2022-08-14T21:04:04.927Z,24.00
2022-08-14T21:07:23.968Z,24.00
2022-08-14T21:10:06.246Z,23.50
2022-08-14T21:14:18.708Z,23.50
2022-08-14T21:16:34.198Z,23.50
2022-08-14T21:19:06.118Z,23.50
2022-08-14T21:21:54.798Z,23.50
2022-08-14T21:24:39.597Z,23.50
2022-08-14T21:27:25.139Z,23.50
2022-08-14T21:30:08.921Z,23.50
2022-08-14T21:32:58.053Z,23.50
2022-08-14T21:35:45.671Z,23.00
2022-08-14T21:38:33.605Z,23.50
2022-08-14T21:41:43.497Z,23.50
2022-08-14T21:44:24.230Z,23.00
2022-08-14T21:47:23.523Z,23.00
2022-08-14T21:50:56.447Z,23.00
2022-08-14T21:53:05.267Z,23.00
2022-08-14T21:55:44.539Z,23.00
2022-08-14T21:58:54.351Z,23.00
2022-08-14T22:01:23.911Z,23.00
2022-08-14T22:04:32.554Z,23.00
2022-08-14T22:07:00.405Z,23.00
2022-08-14T22:09:38.878Z,23.00
2022-08-14T22:12:45.459Z,23.00
2022-08-14T22:15:19.827Z,23.00
2022-08-14T22:18:02.304Z,23.00
2022-08-14T22:20:41.625Z,23.00
2022-08-14T22:23:20.475Z,23.00
2022-08-14T22:25:59.337Z,23.00
2022-08-14T22:28:44.695Z,23.00
2022-08-14T22:31:24.209Z,23.00
2022-08-14T22:34:04.558Z,23.00
2022-08-14T22:36:48.832Z,22.50
2022-08-14T22:40:17.536Z,23.00
2022-08-14T22:42:36.025Z,23.00
2022-08-14T22:45:15.283Z,23.00
2022-08-14T22:47:54.683Z,22.50
2022-08-14T22:50:34.487Z,22.50
2022-08-14T22:53:13.078Z,23.00
2022-08-14T22:55:52.419Z,22.50
2022-08-14T22:58:34.790Z,22.50
2022-08-14T23:01:22.839Z,22.50
2022-08-14T23:04:01.480Z,22.50
2022-08-14T23:07:03.554Z,22.50
2022-08-14T23:09:41.167Z,22.50
2022-08-14T23:12:45.905Z,22.00
2022-08-14T23:15:29.789Z,22.50
2022-08-14T23:18:13.116Z,22.00
2022-08-14T23:20:52.817Z,22.00
2022-08-14T23:23:31.589Z,22.00
2022-08-14T23:26:48.051Z,22.00
2022-08-14T23:29:08.752Z,22.00
2022-08-14T23:31:50.281Z,22.00
2022-08-14T23:34:29.630Z,22.00
2022-08-14T23:37:07.847Z,22.00
2022-08-14T23:39:46.052Z,22.00
2022-08-14T23:42:50.346Z,22.00
2022-08-14T23:45:36.038Z,22.00
2022-08-14T23:48:21.252Z,22.00
2022-08-14T23:51:03.077Z,22.00
2022-08-14T23:53:48.181Z,21.50
2022-08-14T23:56:33.479Z,22.00
2022-08-14T23:59:13.096Z,22.00
